PWSweather.com
Personal Weather Stations
Station Observations
K4FB1
Clubhouse Heritage, Lakeland, FL 33812

Clubhouse HeritageLakeland, FL 33812

Lat: 27.969224, Lon: -81.897769

Elevation: 145

Station Type: Davis Vantage Pro2

http://www.ClubhouseWX.com

Latest ConditionsUpdated 9:25:00 PM EDT Thursday, Sep 29, 2016
Currently Today's Max Today's Min Today's Average
Temperature 73.5°F23.1°C 88.6°F31.4°C 69.9°F21.1°C 76.3°F24.6°C
Dew Point 71.0°F21.7°C 79.5°F26.4°C 68.4°F20.2°C 73.0°F22.8°C
Winds Calm Calm 7.0 mph WSW11.3 kmh WSW - 2.0 mph 3.2 kmh
Wind Gusts 2.0 mph3.2 kmh 21.0 mph33.8 kmh - -
Humidity 92% 96% 70% 90%
Pressure 30.02 in1016.6 mb 30.06 in1017.9 mb 29.97 in1014.9 mb -
Precipitation - 0.73 in18.5 mm - -
Hour Temp Dew Point Humidity Winds Wind Gusts Pressure Precip Precip Rate Daily Precip Total
09:25 PM 73.5°F23.1°C 71.0°F21.7°C 92% Calm Calm 2.0 mph3.2 kmh 30.02 in1016.6 mb 0.00 in0.0 mm 0.00 in0.0 mm 0.73 in18.5 mm
09:20 PM 73.5°F23.1°C 71.0°F21.7°C 92% Calm Calm 3.0 mph4.8 kmh 30.02 in1016.6 mb 0.00 in0.0 mm 0.00 in0.0 mm 0.73 in18.5 mm
09:15 PM 73.6°F23.1°C 71.1°F21.7°C 92% Calm Calm 3.0 mph4.8 kmh 30.03 in1016.9 mb 0.00 in0.0 mm 0.00 in0.0 mm 0.73 in18.5 mm
09:10 PM 73.6°F23.1°C 71.1°F21.7°C 92% 1.0 mph SW1.6 kmh SW 5.0 mph8.0 kmh 30.03 in1016.9 mb 0.00 in0.0 mm 0.00 in0.0 mm 0.73 in18.5 mm
09:05 PM 73.7°F23.2°C 71.2°F21.8°C 92% 1.0 mph SW1.6 kmh SW 5.0 mph8.0 kmh 30.03 in1016.9 mb 0.00 in0.0 mm 0.00 in0.0 mm 0.73 in18.5 mm
09:00 PM 73.7°F23.2°C 71.2°F21.8°C 92% 2.0 mph SSW3.2 kmh SSW 5.0 mph8.0 kmh 30.03 in1016.9 mb 0.00 in0.0 mm 0.00 in0.0 mm 0.73 in18.5 mm
08:55 PM 73.8°F23.2°C 71.3°F21.8°C 92% 2.0 mph SSW3.2 kmh SSW 7.0 mph11.3 kmh 30.02 in1016.6 mb 0.00 in0.0 mm 0.00 in0.0 mm 0.73 in18.5 mm
08:50 PM 73.8°F23.2°C 71.3°F21.8°C 92% 2.0 mph SSW3.2 kmh SSW 7.0 mph11.3 kmh 30.02 in1016.6 mb 0.00 in0.0 mm 0.00 in0.0 mm 0.73 in18.5 mm
08:45 PM 73.8°F23.2°C 71.3°F21.8°C 92% 2.0 mph SSW3.2 kmh SSW 7.0 mph11.3 kmh 30.02 in1016.6 mb 0.00 in0.0 mm 0.00 in0.0 mm 0.73 in18.5 mm
08:40 PM 73.8°F23.2°C 71.3°F21.8°C 92% 2.0 mph SW3.2 kmh SW 7.0 mph11.3 kmh 30.02 in1016.6 mb 0.00 in0.0 mm 0.00 in0.0 mm 0.73 in18.5 mm
08:35 PM 73.9°F23.3°C 71.7°F22.1°C 93% 2.0 mph SW3.2 kmh SW 7.0 mph11.3 kmh 30.02 in1016.6 mb 0.00 in0.0 mm 0.00 in0.0 mm 0.73 in18.5 mm
08:30 PM 74.0°F23.3°C 71.8°F22.1°C 93% 2.0 mph S3.2 kmh S 7.0 mph11.3 kmh 30.02 in1016.6 mb 0.00 in0.0 mm 0.00 in0.0 mm 0.73 in18.5 mm
08:25 PM 74.1°F23.4°C 71.9°F22.2°C 93% 2.0 mph SSW3.2 kmh SSW 7.0 mph11.3 kmh 30.02 in1016.6 mb 0.00 in0.0 mm 0.00 in0.0 mm 0.73 in18.5 mm
08:20 PM 74.1°F23.4°C 71.9°F22.2°C 93% 2.0 mph SW3.2 kmh SW 5.0 mph8.0 kmh 30.02 in1016.6 mb 0.00 in0.0 mm 0.00 in0.0 mm 0.73 in18.5 mm
08:15 PM 74.2°F23.4°C 72.0°F22.2°C 93% 2.0 mph SSW3.2 kmh SSW 4.0 mph6.4 kmh 30.02 in1016.6 mb 0.00 in0.0 mm 0.00 in0.0 mm 0.73 in18.5 mm
08:10 PM 74.2°F23.4°C 72.0°F22.2°C 93% 1.0 mph SSW1.6 kmh SSW 4.0 mph6.4 kmh 30.01 in1016.3 mb 0.00 in0.0 mm 0.00 in0.0 mm 0.73 in18.5 mm
08:05 PM 74.2°F23.4°C 72.0°F22.2°C 93% 1.0 mph SSW1.6 kmh SSW 4.0 mph6.4 kmh 30.01 in1016.3 mb 0.00 in0.0 mm 0.00 in0.0 mm 0.73 in18.5 mm
08:00 PM 74.2°F23.4°C 72.0°F22.2°C 93% 1.0 mph S1.6 kmh S 4.0 mph6.4 kmh 30.01 in1016.3 mb 0.00 in0.0 mm 0.00 in0.0 mm 0.73 in18.5 mm
07:55 PM 74.2°F23.4°C 72.0°F22.2°C 93% 2.0 mph S3.2 kmh S 6.0 mph9.7 kmh 30.01 in1016.3 mb 0.00 in0.0 mm 0.00 in0.0 mm 0.73 in18.5 mm
07:50 PM 74.2°F23.4°C 72.0°F22.2°C 93% 2.0 mph S3.2 kmh S 6.0 mph9.7 kmh 30.01 in1016.3 mb 0.00 in0.0 mm 0.00 in0.0 mm 0.73 in18.5 mm
07:45 PM 74.2°F23.4°C 71.7°F22.1°C 92% 3.0 mph S4.8 kmh S 6.0 mph9.7 kmh 30.01 in1016.3 mb 0.00 in0.0 mm 0.00 in0.0 mm 0.73 in18.5 mm
07:40 PM 74.2°F23.4°C 71.7°F22.1°C 92% 3.0 mph S4.8 kmh S 9.0 mph14.5 kmh 30.01 in1016.3 mb 0.00 in0.0 mm 0.00 in0.0 mm 0.73 in18.5 mm
07:35 PM 74.2°F23.4°C 71.7°F22.1°C 92% 4.0 mph S6.4 kmh S 9.0 mph14.5 kmh 30.01 in1016.3 mb 0.00 in0.0 mm 0.00 in0.0 mm 0.73 in18.5 mm
07:30 PM 74.2°F23.4°C 71.7°F22.1°C 92% 4.0 mph S6.4 kmh S 9.0 mph14.5 kmh 30.01 in1016.3 mb 0.00 in0.0 mm 0.00 in0.0 mm 0.73 in18.5 mm
07:25 PM 74.2°F23.4°C 71.7°F22.1°C 92% 3.0 mph S4.8 kmh S 8.0 mph12.9 kmh 30.02 in1016.6 mb 0.00 in0.0 mm 0.00 in0.0 mm 0.73 in18.5 mm
07:20 PM 74.3°F23.5°C 71.8°F22.1°C 92% 3.0 mph S4.8 kmh S 7.0 mph11.3 kmh 30.01 in1016.3 mb 0.00 in0.0 mm 0.00 in0.0 mm 0.73 in18.5 mm
07:15 PM 74.4°F23.6°C 72.2°F22.3°C 93% 3.0 mph S4.8 kmh S 7.0 mph11.3 kmh 30.01 in1016.3 mb 0.00 in0.0 mm 0.00 in0.0 mm 0.73 in18.5 mm
07:10 PM 74.4°F23.6°C 72.2°F22.3°C 93% 3.0 mph S4.8 kmh S 7.0 mph11.3 kmh 30.00 in1015.9 mb 0.00 in0.0 mm 0.00 in0.0 mm 0.73 in18.5 mm
07:05 PM 74.5°F23.6°C 72.3°F22.4°C 93% 4.0 mph S6.4 kmh S 7.0 mph11.3 kmh 30.00 in1015.9 mb 0.00 in0.0 mm 0.00 in0.0 mm 0.73 in18.5 mm
07:00 PM 74.5°F23.6°C 72.0°F22.2°C 92% 3.0 mph S4.8 kmh S 5.0 mph8.0 kmh 30.01 in1016.3 mb 0.00 in0.0 mm 0.00 in0.0 mm 0.73 in18.5 mm
06:55 PM 74.5°F23.6°C 72.0°F22.2°C 92% 3.0 mph S4.8 kmh S 7.0 mph11.3 kmh 30.01 in1016.3 mb 0.00 in0.0 mm 0.00 in0.0 mm 0.73 in18.5 mm
06:50 PM 74.4°F23.6°C 71.9°F22.2°C 92% 3.0 mph S4.8 kmh S 7.0 mph11.3 kmh 30.01 in1016.3 mb 0.00 in0.0 mm 0.00 in0.0 mm 0.73 in18.5 mm
06:45 PM 74.4°F23.6°C 71.9°F22.2°C 92% 3.0 mph SSE4.8 kmh SSE 6.0 mph9.7 kmh 30.01 in1016.3 mb 0.00 in0.0 mm 0.00 in0.0 mm 0.73 in18.5 mm
06:40 PM 74.4°F23.6°C 71.9°F22.2°C 92% 3.0 mph S4.8 kmh S 5.0 mph8.0 kmh 30.01 in1016.3 mb 0.00 in0.0 mm 0.00 in0.0 mm 0.73 in18.5 mm
06:35 PM 74.3°F23.5°C 71.8°F22.1°C 92% 3.0 mph S4.8 kmh S 6.0 mph9.7 kmh 30.01 in1016.3 mb 0.00 in0.0 mm 0.00 in0.0 mm 0.73 in18.5 mm
06:30 PM 74.2°F23.4°C 71.7°F22.1°C 92% 4.0 mph S6.4 kmh S 7.0 mph11.3 kmh 30.00 in1015.9 mb 0.00 in0.0 mm 0.00 in0.0 mm 0.73 in18.5 mm
06:25 PM 74.0°F23.3°C 71.2°F21.8°C 91% 4.0 mph S6.4 kmh S 7.0 mph11.3 kmh 30.00 in1015.9 mb 0.00 in0.0 mm 0.00 in0.0 mm 0.73 in18.5 mm
06:20 PM 73.8°F23.2°C 71.0°F21.7°C 91% 4.0 mph S6.4 kmh S 7.0 mph11.3 kmh 30.00 in1015.9 mb 0.00 in0.0 mm 0.00 in0.0 mm 0.73 in18.5 mm
06:15 PM 73.7°F23.2°C 70.9°F21.6°C 91% 4.0 mph S6.4 kmh S 7.0 mph11.3 kmh 30.00 in1015.9 mb 0.00 in0.0 mm 0.00 in0.0 mm 0.73 in18.5 mm
06:10 PM 73.6°F23.1°C 71.1°F21.7°C 92% 3.0 mph S4.8 kmh S 7.0 mph11.3 kmh 29.99 in1015.6 mb 0.00 in0.0 mm 0.00 in0.0 mm 0.73 in18.5 mm
06:05 PM 73.7°F23.2°C 71.2°F21.8°C 92% 3.0 mph S4.8 kmh S 5.0 mph8.0 kmh 29.99 in1015.6 mb 0.00 in0.0 mm 0.00 in0.0 mm 0.73 in18.5 mm
06:00 PM 73.7°F23.2°C 70.9°F21.6°C 91% 3.0 mph S4.8 kmh S 5.0 mph8.0 kmh 29.99 in1015.6 mb 0.00 in0.0 mm 0.00 in0.0 mm 0.73 in18.5 mm
05:55 PM 73.7°F23.2°C 70.9°F21.6°C 91% 4.0 mph S6.4 kmh S 9.0 mph14.5 kmh 29.98 in1015.2 mb 0.00 in0.0 mm 0.00 in0.0 mm 0.73 in18.5 mm
05:50 PM 73.8°F23.2°C 71.0°F21.7°C 91% 4.0 mph S6.4 kmh S 9.0 mph14.5 kmh 29.98 in1015.2 mb 0.00 in0.0 mm 0.00 in0.0 mm 0.73 in18.5 mm
05:45 PM 73.7°F23.2°C 70.9°F21.6°C 91% 4.0 mph S6.4 kmh S 8.0 mph12.9 kmh 29.99 in1015.6 mb 0.00 in0.0 mm 0.00 in0.0 mm 0.73 in18.5 mm
05:40 PM 73.8°F23.2°C 71.3°F21.8°C 92% 4.0 mph S6.4 kmh S 8.0 mph12.9 kmh 29.99 in1015.6 mb 0.00 in0.0 mm 0.00 in0.0 mm 0.73 in18.5 mm
05:35 PM 73.8°F23.2°C 71.3°F21.8°C 92% 3.0 mph S4.8 kmh S 8.0 mph12.9 kmh 30.00 in1015.9 mb 0.00 in0.0 mm 0.00 in0.0 mm 0.73 in18.5 mm
05:30 PM 73.8°F23.2°C 71.3°F21.8°C 92% 3.0 mph S4.8 kmh S 7.0 mph11.3 kmh 30.00 in1015.9 mb 0.00 in0.0 mm 0.00 in0.0 mm 0.73 in18.5 mm
05:25 PM 73.8°F23.2°C 71.3°F21.8°C 92% 4.0 mph S6.4 kmh S 7.0 mph11.3 kmh 29.99 in1015.6 mb 0.03 in0.8 mm 0.00 in0.0 mm 0.73 in18.5 mm
05:20 PM 73.8°F23.2°C 71.6°F22.0°C 93% 3.0 mph SW4.8 kmh SW 7.0 mph11.3 kmh 30.00 in1015.9 mb 0.15 in3.8 mm 0.00 in0.0 mm 0.73 in18.5 mm
05:15 PM 73.9°F23.3°C 71.7°F22.1°C 93% 3.0 mph S4.8 kmh S 7.0 mph11.3 kmh 30.00 in1015.9 mb 0.17 in4.3 mm 0.00 in0.0 mm 0.73 in18.5 mm
05:10 PM 73.7°F23.2°C 71.2°F21.8°C 92% 3.0 mph SE4.8 kmh SE 8.0 mph12.9 kmh 29.99 in1015.6 mb 0.17 in4.3 mm 0.00 in0.0 mm 0.73 in18.5 mm
05:05 PM 73.8°F23.2°C 71.3°F21.8°C 92% 5.0 mph SE8.0 kmh SE 10.0 mph16.1 kmh 29.99 in1015.6 mb 0.17 in4.3 mm 0.00 in0.0 mm 0.73 in18.5 mm
05:00 PM 74.0°F23.3°C 71.5°F21.9°C 92% 6.0 mph SE9.7 kmh SE 11.0 mph17.7 kmh 30.00 in1015.9 mb 0.17 in4.3 mm 0.00 in0.0 mm 0.73 in18.5 mm
04:55 PM 74.2°F23.4°C 71.7°F22.1°C 92% 6.0 mph SE9.7 kmh SE 12.0 mph19.3 kmh 30.00 in1015.9 mb 0.17 in4.3 mm 0.00 in0.0 mm 0.73 in18.5 mm
04:50 PM 74.4°F23.6°C 71.6°F22.0°C 91% 7.0 mph SSE11.3 kmh SSE 12.0 mph19.3 kmh 30.00 in1015.9 mb 0.17 in4.3 mm 0.00 in0.0 mm 0.73 in18.5 mm
04:45 PM 74.7°F23.7°C 71.9°F22.2°C 91% 7.0 mph SSE11.3 kmh SSE 14.0 mph22.5 kmh 30.00 in1015.9 mb 0.17 in4.3 mm 0.00 in0.0 mm 0.73 in18.5 mm
04:40 PM 75.2°F24.0°C 72.1°F22.3°C 90% 7.0 mph SE11.3 kmh SE 14.0 mph22.5 kmh 30.00 in1015.9 mb 0.17 in4.3 mm 0.00 in0.0 mm 0.73 in18.5 mm
04:35 PM 75.9°F24.4°C 72.4°F22.4°C 89% 5.0 mph SSE8.0 kmh SSE 11.0 mph17.7 kmh 30.00 in1015.9 mb 0.17 in4.3 mm 0.00 in0.0 mm 0.73 in18.5 mm
04:30 PM 76.8°F24.9°C 73.0°F22.8°C 88% 3.0 mph SSW4.8 kmh SSW 12.0 mph19.3 kmh 29.98 in1015.2 mb 0.17 in4.3 mm 0.60 in15.2 mm 0.73 in18.5 mm
04:25 PM 77.4°F25.2°C 73.2°F22.9°C 87% 4.0 mph WNW6.4 kmh WNW 12.0 mph19.3 kmh 30.00 in1015.9 mb 0.12 in3.0 mm 1.20 in30.5 mm 0.68 in17.3 mm
04:20 PM 78.2°F25.7°C 73.3°F22.9°C 85% 5.0 mph NW8.0 kmh NW 9.0 mph14.5 kmh 30.00 in1015.9 mb 0.02 in0.5 mm 0.24 in6.1 mm 0.58 in14.7 mm
04:15 PM 78.5°F25.8°C 72.5°F22.5°C 82% 4.0 mph NNW6.4 kmh NNW 10.0 mph16.1 kmh 29.99 in1015.6 mb 0.00 in0.0 mm 0.00 in0.0 mm 0.56 in14.2 mm
04:10 PM 79.3°F26.3°C 72.6°F22.6°C 80% 4.0 mph NNW6.4 kmh NNW 10.0 mph16.1 kmh 30.00 in1015.9 mb 0.00 in0.0 mm 0.00 in0.0 mm 0.56 in14.2 mm
04:05 PM 80.2°F26.8°C 72.7°F22.6°C 78% 3.0 mph NNW4.8 kmh NNW 8.0 mph12.9 kmh 29.99 in1015.6 mb 0.00 in0.0 mm 0.00 in0.0 mm 0.56 in14.2 mm
04:00 PM 81.2°F27.3°C 73.7°F23.2°C 78% 5.0 mph NW8.0 kmh NW 13.0 mph20.9 kmh 29.98 in1015.2 mb 0.00 in0.0 mm 0.00 in0.0 mm 0.56 in14.2 mm
03:55 PM 83.0°F28.3°C 74.6°F23.7°C 76% 5.0 mph NNW8.0 kmh NNW 13.0 mph20.9 kmh 29.99 in1015.6 mb 0.00 in0.0 mm 0.00 in0.0 mm 0.56 in14.2 mm
03:50 PM 85.7°F29.8°C 75.6°F24.2°C 72% 2.0 mph NNE3.2 kmh NNE 9.0 mph14.5 kmh 29.99 in1015.6 mb 0.00 in0.0 mm 0.00 in0.0 mm 0.56 in14.2 mm
03:45 PM 86.6°F30.3°C 76.5°F24.7°C 72% 2.0 mph SSE3.2 kmh SSE 6.0 mph9.7 kmh 29.99 in1015.6 mb 0.00 in0.0 mm 0.00 in0.0 mm 0.56 in14.2 mm
03:40 PM 87.2°F30.7°C 76.6°F24.8°C 71% 3.0 mph S4.8 kmh S 6.0 mph9.7 kmh 29.99 in1015.6 mb 0.00 in0.0 mm 0.00 in0.0 mm 0.56 in14.2 mm
03:35 PM 87.6°F30.9°C 76.6°F24.8°C 70% 3.0 mph S4.8 kmh S 6.0 mph9.7 kmh 29.99 in1015.6 mb 0.00 in0.0 mm 0.00 in0.0 mm 0.56 in14.2 mm
03:30 PM 88.0°F31.1°C 77.0°F25.0°C 70% 2.0 mph SSW3.2 kmh SSW 6.0 mph9.7 kmh 29.98 in1015.2 mb 0.00 in0.0 mm 0.00 in0.0 mm 0.56 in14.2 mm
03:25 PM 88.2°F31.2°C 77.6°F25.3°C 71% 2.0 mph SW3.2 kmh SW 6.0 mph9.7 kmh 29.98 in1015.2 mb 0.00 in0.0 mm 0.00 in0.0 mm 0.56 in14.2 mm
03:20 PM 88.1°F31.2°C 78.3°F25.7°C 73% 3.0 mph SW4.8 kmh SW 7.0 mph11.3 kmh 29.98 in1015.2 mb 0.00 in0.0 mm 0.00 in0.0 mm 0.56 in14.2 mm
03:15 PM 87.9°F31.1°C 78.6°F25.9°C 74% 3.0 mph SW4.8 kmh SW 7.0 mph11.3 kmh 29.99 in1015.6 mb 0.00 in0.0 mm 0.00 in0.0 mm 0.56 in14.2 mm
03:10 PM 87.3°F30.7°C 78.4°F25.8°C 75% 2.0 mph SW3.2 kmh SW 7.0 mph11.3 kmh 29.99 in1015.6 mb 0.00 in0.0 mm 0.00 in0.0 mm 0.56 in14.2 mm
03:05 PM 86.7°F30.4°C 79.0°F26.1°C 78% 2.0 mph SW3.2 kmh SW 7.0 mph11.3 kmh 30.00 in1015.9 mb 0.00 in0.0 mm 0.00 in0.0 mm 0.56 in14.2 mm
03:00 PM 86.1°F30.1°C 79.2°F26.2°C 80% 2.0 mph SW3.2 kmh SW 6.0 mph9.7 kmh 30.00 in1015.9 mb 0.00 in0.0 mm 0.00 in0.0 mm 0.56 in14.2 mm
02:55 PM 85.0°F29.4°C 78.9°F26.1°C 82% 2.0 mph SW3.2 kmh SW 6.0 mph9.7 kmh 30.00 in1015.9 mb 0.00 in0.0 mm 0.00 in0.0 mm 0.56 in14.2 mm
02:50 PM 83.8°F28.8°C 78.4°F25.8°C 84% 2.0 mph SW3.2 kmh SW 5.0 mph8.0 kmh 30.01 in1016.3 mb 0.00 in0.0 mm 0.00 in0.0 mm 0.56 in14.2 mm
02:45 PM 82.8°F28.2°C 78.5°F25.8°C 87% 2.0 mph SSW3.2 kmh SSW 6.0 mph9.7 kmh 30.01 in1016.3 mb 0.00 in0.0 mm 0.00 in0.0 mm 0.56 in14.2 mm
02:40 PM 82.1°F27.8°C 77.8°F25.4°C 87% 3.0 mph S4.8 kmh S 6.0 mph9.7 kmh 30.00 in1015.9 mb 0.00 in0.0 mm 0.00 in0.0 mm 0.56 in14.2 mm
02:35 PM 81.6°F27.6°C 78.4°F25.8°C 90% 2.0 mph S3.2 kmh S 6.0 mph9.7 kmh 30.00 in1015.9 mb 0.00 in0.0 mm 0.00 in0.0 mm 0.56 in14.2 mm
02:30 PM 80.9°F27.2°C 78.0°F25.6°C 91% 3.0 mph S4.8 kmh S 7.0 mph11.3 kmh 30.00 in1015.9 mb 0.00 in0.0 mm 0.00 in0.0 mm 0.56 in14.2 mm
02:25 PM 80.0°F26.7°C 77.8°F25.4°C 93% 2.0 mph SSW3.2 kmh SSW 7.0 mph11.3 kmh 30.00 in1015.9 mb 0.00 in0.0 mm 0.00 in0.0 mm 0.56 in14.2 mm
02:20 PM 79.1°F26.2°C 76.9°F24.9°C 93% 1.0 mph WSW1.6 kmh WSW 5.0 mph8.0 kmh 30.00 in1015.9 mb 0.00 in0.0 mm 0.00 in0.0 mm 0.56 in14.2 mm
02:15 PM 78.3°F25.7°C 76.4°F24.7°C 94% 1.0 mph WSW1.6 kmh WSW 4.0 mph6.4 kmh 30.00 in1015.9 mb 0.00 in0.0 mm 0.00 in0.0 mm 0.56 in14.2 mm
02:10 PM 77.7°F25.4°C 75.8°F24.3°C 94% 1.0 mph WSW1.6 kmh WSW 2.0 mph3.2 kmh 30.01 in1016.3 mb 0.00 in0.0 mm 0.00 in0.0 mm 0.56 in14.2 mm
02:05 PM 77.2°F25.1°C 75.3°F24.1°C 94% 1.0 mph WSW1.6 kmh WSW 2.0 mph3.2 kmh 30.01 in1016.3 mb 0.00 in0.0 mm 0.00 in0.0 mm 0.56 in14.2 mm
02:00 PM 76.7°F24.8°C 74.8°F23.8°C 94% Calm Calm 2.0 mph3.2 kmh 30.01 in1016.3 mb 0.00 in0.0 mm 0.00 in0.0 mm 0.56 in14.2 mm
01:55 PM 76.3°F24.6°C 74.4°F23.6°C 94% Calm Calm 2.0 mph3.2 kmh 30.01 in1016.3 mb 0.00 in0.0 mm 0.00 in0.0 mm 0.56 in14.2 mm
01:50 PM 76.0°F24.4°C 74.1°F23.4°C 94% Calm Calm 1.0 mph1.6 kmh 30.01 in1016.3 mb 0.00 in0.0 mm 0.00 in0.0 mm 0.56 in14.2 mm
01:45 PM 75.6°F24.2°C 73.8°F23.2°C 94% Calm Calm 1.0 mph1.6 kmh 30.01 in1016.3 mb 0.00 in0.0 mm 0.00 in0.0 mm 0.56 in14.2 mm
01:40 PM 75.2°F24.0°C 73.4°F23.0°C 94% Calm Calm 1.0 mph1.6 kmh 30.01 in1016.3 mb 0.01 in0.3 mm 0.00 in0.0 mm 0.56 in14.2 mm
01:35 PM 74.9°F23.8°C 73.1°F22.8°C 94% Calm Calm 2.0 mph3.2 kmh 30.02 in1016.6 mb 0.03 in0.8 mm 0.00 in0.0 mm 0.56 in14.2 mm
01:30 PM 74.7°F23.7°C 72.9°F22.7°C 94% Calm Calm 2.0 mph3.2 kmh 30.02 in1016.6 mb 0.07 in1.8 mm 0.00 in0.0 mm 0.56 in14.2 mm
01:25 PM 74.7°F23.7°C 72.9°F22.7°C 94% Calm Calm 1.0 mph1.6 kmh 30.02 in1016.6 mb 0.18 in4.6 mm 0.00 in0.0 mm 0.56 in14.2 mm
01:20 PM 74.5°F23.6°C 72.7°F22.6°C 94% Calm Calm 1.0 mph1.6 kmh 30.02 in1016.6 mb 0.29 in7.4 mm 0.00 in0.0 mm 0.56 in14.2 mm
01:15 PM 74.3°F23.5°C 72.5°F22.5°C 94% Calm Calm 1.0 mph1.6 kmh 30.03 in1016.9 mb 0.53 in13.5 mm 0.00 in0.0 mm 0.56 in14.2 mm
01:10 PM 73.9°F23.3°C 72.1°F22.3°C 94% Calm Calm 1.0 mph1.6 kmh 30.03 in1016.9 mb 0.54 in13.7 mm 0.00 in0.0 mm 0.56 in14.2 mm
01:05 PM 73.5°F23.1°C 71.4°F21.9°C 93% 1.0 mph SW1.6 kmh SW 3.0 mph4.8 kmh 30.03 in1016.9 mb 0.54 in13.7 mm 0.00 in0.0 mm 0.56 in14.2 mm
01:00 PM 73.2°F22.9°C 71.1°F21.7°C 93% 1.0 mph WSW1.6 kmh WSW 3.0 mph4.8 kmh 30.03 in1016.9 mb 0.54 in13.7 mm 0.00 in0.0 mm 0.56 in14.2 mm
12:55 PM 72.9°F22.7°C 70.8°F21.6°C 93% Calm Calm 3.0 mph4.8 kmh 30.03 in1016.9 mb 0.55 in14.0 mm 0.00 in0.0 mm 0.56 in14.2 mm
12:50 PM 72.8°F22.7°C 70.3°F21.3°C 92% 1.0 mph W1.6 kmh W 6.0 mph9.7 kmh 30.03 in1016.9 mb 0.55 in14.0 mm 0.00 in0.0 mm 0.56 in14.2 mm
12:45 PM 72.8°F22.7°C 70.3°F21.3°C 92% 2.0 mph W3.2 kmh W 7.0 mph11.3 kmh 30.04 in1017.3 mb 0.55 in14.0 mm 0.12 in3.0 mm 0.56 in14.2 mm
12:40 PM 72.9°F22.7°C 69.8°F21.0°C 90% 3.0 mph W4.8 kmh W 8.0 mph12.9 kmh 30.05 in1017.6 mb 0.54 in13.7 mm 0.24 in6.1 mm 0.55 in14.0 mm
12:35 PM 73.4°F23.0°C 69.6°F20.9°C 88% 4.0 mph WSW6.4 kmh WSW 12.0 mph19.3 kmh 30.04 in1017.3 mb 0.52 in13.2 mm 0.48 in12.2 mm 0.53 in13.5 mm
12:30 PM 74.6°F23.7°C 70.5°F21.4°C 87% 6.0 mph WSW9.7 kmh WSW 14.0 mph22.5 kmh 30.04 in1017.3 mb 0.48 in12.2 mm 1.32 in33.5 mm 0.49 in12.4 mm
12:25 PM 76.7°F24.8°C 71.8°F22.1°C 85% 7.0 mph WSW11.3 kmh WSW 16.0 mph25.7 kmh 30.05 in1017.6 mb 0.37 in9.4 mm 1.68 in42.7 mm 0.38 in9.7 mm
12:20 PM 80.1°F26.7°C 73.7°F23.2°C 81% 7.0 mph WSW11.3 kmh WSW 21.0 mph33.8 kmh 30.06 in1017.9 mb 0.23 in5.8 mm 2.64 in67.1 mm 0.24 in6.1 mm
12:15 PM 84.7°F29.3°C 77.5°F25.3°C 79% 4.0 mph WSW6.4 kmh WSW 21.0 mph33.8 kmh 30.06 in1017.9 mb 0.01 in0.3 mm 0.00 in0.0 mm 0.02 in0.5 mm
12:10 PM 84.8°F29.3°C 77.6°F25.3°C 79% 3.0 mph W4.8 kmh W 6.0 mph9.7 kmh 30.03 in1016.9 mb 0.01 in0.3 mm 0.00 in0.0 mm 0.02 in0.5 mm
12:05 PM 85.6°F29.8°C 77.9°F25.5°C 78% 3.0 mph W4.8 kmh W 7.0 mph11.3 kmh 30.03 in1016.9 mb 0.01 in0.3 mm 0.00 in0.0 mm 0.02 in0.5 mm
12:00 PM 86.6°F30.3°C 78.5°F25.8°C 77% 3.0 mph WSW4.8 kmh WSW 9.0 mph14.5 kmh 30.04 in1017.3 mb 0.01 in0.3 mm 0.01 in0.3 mm 0.02 in0.5 mm
11:55 AM 88.0°F31.1°C 79.5°F26.4°C 76% 4.0 mph WSW6.4 kmh WSW 10.0 mph16.1 kmh 30.03 in1016.9 mb 0.00 in0.0 mm 0.00 in0.0 mm 0.01 in0.3 mm
11:50 AM 87.9°F31.1°C 78.2°F25.7°C 73% 3.0 mph SW4.8 kmh SW 10.0 mph16.1 kmh 30.03 in1016.9 mb 0.00 in0.0 mm 0.00 in0.0 mm 0.01 in0.3 mm
11:45 AM 88.4°F31.3°C 78.6°F25.9°C 73% 3.0 mph SW4.8 kmh SW 7.0 mph11.3 kmh 30.03 in1016.9 mb 0.00 in0.0 mm 0.00 in0.0 mm 0.01 in0.3 mm
11:40 AM 88.6°F31.4°C 78.0°F25.6°C 71% 3.0 mph SW4.8 kmh SW 8.0 mph12.9 kmh 30.03 in1016.9 mb 0.00 in0.0 mm 0.00 in0.0 mm 0.01 in0.3 mm
11:35 AM 88.6°F31.4°C 78.0°F25.6°C 71% 4.0 mph SSW6.4 kmh SSW 8.0 mph12.9 kmh 30.03 in1016.9 mb 0.00 in0.0 mm 0.00 in0.0 mm 0.01 in0.3 mm
11:30 AM 88.2°F31.2°C 78.0°F25.6°C 72% 3.0 mph SSW4.8 kmh SSW 8.0 mph12.9 kmh 30.03 in1016.9 mb 0.00 in0.0 mm 0.00 in0.0 mm 0.01 in0.3 mm
11:25 AM 87.7°F30.9°C 78.8°F26.0°C 75% 3.0 mph SW4.8 kmh SW 7.0 mph11.3 kmh 30.03 in1016.9 mb 0.00 in0.0 mm 0.00 in0.0 mm 0.01 in0.3 mm
11:20 AM 87.4°F30.8°C 78.1°F25.6°C 74% 4.0 mph SSW6.4 kmh SSW 8.0 mph12.9 kmh 30.03 in1016.9 mb 0.00 in0.0 mm 0.00 in0.0 mm 0.01 in0.3 mm
11:15 AM 87.4°F30.8°C 78.1°F25.6°C 74% 5.0 mph S8.0 kmh S 11.0 mph17.7 kmh 30.04 in1017.3 mb 0.00 in0.0 mm 0.00 in0.0 mm 0.01 in0.3 mm
11:10 AM 87.1°F30.6°C 77.8°F25.4°C 74% 5.0 mph S8.0 kmh S 11.0 mph17.7 kmh 30.04 in1017.3 mb 0.00 in0.0 mm 0.00 in0.0 mm 0.01 in0.3 mm
11:05 AM 86.8°F30.4°C 77.9°F25.5°C 75% 4.0 mph S6.4 kmh S 11.0 mph17.7 kmh 30.04 in1017.3 mb 0.00 in0.0 mm 0.00 in0.0 mm 0.01 in0.3 mm
11:00 AM 86.4°F30.2°C 77.9°F25.5°C 76% 3.0 mph S4.8 kmh S 11.0 mph17.7 kmh 30.04 in1017.3 mb 0.00 in0.0 mm 0.00 in0.0 mm 0.01 in0.3 mm
10:55 AM 86.1°F30.1°C 78.0°F25.6°C 77% 3.0 mph SSW4.8 kmh SSW 8.0 mph12.9 kmh 30.04 in1017.3 mb 0.00 in0.0 mm 0.00 in0.0 mm 0.01 in0.3 mm
10:50 AM 85.8°F29.9°C 78.1°F25.6°C 78% 4.0 mph SSW6.4 kmh SSW 8.0 mph12.9 kmh 30.04 in1017.3 mb 0.00 in0.0 mm 0.00 in0.0 mm 0.01 in0.3 mm
10:45 AM 85.7°F29.8°C 78.0°F25.6°C 78% 4.0 mph SSW6.4 kmh SSW 8.0 mph12.9 kmh 30.04 in1017.3 mb 0.00 in0.0 mm 0.00 in0.0 mm 0.01 in0.3 mm
10:40 AM 85.7°F29.8°C 78.4°F25.8°C 79% 4.0 mph S6.4 kmh S 8.0 mph12.9 kmh 30.04 in1017.3 mb 0.00 in0.0 mm 0.00 in0.0 mm 0.01 in0.3 mm
10:35 AM 85.4°F29.7°C 77.8°F25.4°C 78% 5.0 mph S8.0 kmh S 8.0 mph12.9 kmh 30.04 in1017.3 mb 0.00 in0.0 mm 0.00 in0.0 mm 0.01 in0.3 mm
10:30 AM 85.5°F29.7°C 77.9°F25.5°C 78% 4.0 mph S6.4 kmh S 8.0 mph12.9 kmh 30.04 in1017.3 mb 0.00 in0.0 mm 0.00 in0.0 mm 0.01 in0.3 mm
10:25 AM 85.5°F29.7°C 78.6°F25.9°C 80% 3.0 mph S4.8 kmh S 7.0 mph11.3 kmh 30.04 in1017.3 mb 0.00 in0.0 mm 0.00 in0.0 mm 0.01 in0.3 mm
10:20 AM 85.1°F29.5°C 78.6°F25.9°C 81% 4.0 mph S6.4 kmh S 7.0 mph11.3 kmh 30.03 in1016.9 mb 0.00 in0.0 mm 0.00 in0.0 mm 0.01 in0.3 mm
10:15 AM 84.5°F29.2°C 78.4°F25.8°C 82% 3.0 mph S4.8 kmh S 7.0 mph11.3 kmh 30.03 in1016.9 mb 0.00 in0.0 mm 0.00 in0.0 mm 0.01 in0.3 mm
10:10 AM 84.1°F28.9°C 78.4°F25.8°C 83% 3.0 mph S4.8 kmh S 7.0 mph11.3 kmh 30.03 in1016.9 mb 0.00 in0.0 mm 0.00 in0.0 mm 0.01 in0.3 mm
10:05 AM 83.7°F28.7°C 78.0°F25.6°C 83% 3.0 mph S4.8 kmh S 6.0 mph9.7 kmh 30.03 in1016.9 mb 0.00 in0.0 mm 0.00 in0.0 mm 0.01 in0.3 mm
10:00 AM 83.2°F28.4°C 77.9°F25.5°C 84% 4.0 mph S6.4 kmh S 7.0 mph11.3 kmh 30.02 in1016.6 mb 0.00 in0.0 mm 0.00 in0.0 mm 0.01 in0.3 mm
09:55 AM 82.8°F28.2°C 77.5°F25.3°C 84% 3.0 mph S4.8 kmh S 7.0 mph11.3 kmh 30.02 in1016.6 mb 0.00 in0.0 mm 0.00 in0.0 mm 0.01 in0.3 mm
09:50 AM 82.5°F28.1°C 77.5°F25.3°C 85% 3.0 mph SSW4.8 kmh SSW 9.0 mph14.5 kmh 30.02 in1016.6 mb 0.00 in0.0 mm 0.00 in0.0 mm 0.01 in0.3 mm
09:45 AM 82.0°F27.8°C 77.0°F25.0°C 85% 3.0 mph SW4.8 kmh SW 9.0 mph14.5 kmh 30.02 in1016.6 mb 0.00 in0.0 mm 0.00 in0.0 mm 0.01 in0.3 mm
09:40 AM 81.8°F27.7°C 77.2°F25.1°C 86% 3.0 mph SSW4.8 kmh SSW 7.0 mph11.3 kmh 30.02 in1016.6 mb 0.00 in0.0 mm 0.00 in0.0 mm 0.01 in0.3 mm
09:35 AM 81.4°F27.4°C 77.2°F25.1°C 87% 3.0 mph S4.8 kmh S 6.0 mph9.7 kmh 30.02 in1016.6 mb 0.00 in0.0 mm 0.00 in0.0 mm 0.01 in0.3 mm
09:30 AM 80.8°F27.1°C 76.6°F24.8°C 87% 2.0 mph S3.2 kmh S 5.0 mph8.0 kmh 30.02 in1016.6 mb 0.00 in0.0 mm 0.00 in0.0 mm 0.01 in0.3 mm
09:25 AM 80.2°F26.8°C 76.3°F24.6°C 88% 3.0 mph S4.8 kmh S 7.0 mph11.3 kmh 30.02 in1016.6 mb 0.00 in0.0 mm 0.00 in0.0 mm 0.01 in0.3 mm
09:20 AM 79.7°F26.5°C 75.8°F24.3°C 88% 4.0 mph S6.4 kmh S 9.0 mph14.5 kmh 30.02 in1016.6 mb 0.00 in0.0 mm 0.00 in0.0 mm 0.01 in0.3 mm
09:15 AM 79.2°F26.2°C 75.7°F24.3°C 89% 4.0 mph S6.4 kmh S 9.0 mph14.5 kmh 30.02 in1016.6 mb 0.00 in0.0 mm 0.00 in0.0 mm 0.01 in0.3 mm
09:10 AM 78.6°F25.9°C 75.4°F24.1°C 90% 3.0 mph S4.8 kmh S 7.0 mph11.3 kmh 30.02 in1016.6 mb 0.00 in0.0 mm 0.00 in0.0 mm 0.01 in0.3 mm
09:05 AM 78.0°F25.6°C 75.2°F24.0°C 91% 3.0 mph S4.8 kmh S 7.0 mph11.3 kmh 30.02 in1016.6 mb 0.00 in0.0 mm 0.00 in0.0 mm 0.01 in0.3 mm
09:00 AM 77.4°F25.2°C 74.9°F23.8°C 92% 3.0 mph S4.8 kmh S 6.0 mph9.7 kmh 30.02 in1016.6 mb 0.00 in0.0 mm 0.00 in0.0 mm 0.01 in0.3 mm
08:55 AM 76.9°F24.9°C 74.7°F23.7°C 93% 2.0 mph S3.2 kmh S 5.0 mph8.0 kmh 30.02 in1016.6 mb 0.00 in0.0 mm 0.00 in0.0 mm 0.01 in0.3 mm
08:50 AM 76.2°F24.6°C 74.3°F23.5°C 94% 2.0 mph S3.2 kmh S 5.0 mph8.0 kmh 30.02 in1016.6 mb 0.01 in0.3 mm 0.00 in0.0 mm 0.01 in0.3 mm
08:45 AM 75.6°F24.2°C 74.1°F23.4°C 95% 2.0 mph SSE3.2 kmh SSE 4.0 mph6.4 kmh 30.02 in1016.6 mb 0.01 in0.3 mm 0.00 in0.0 mm 0.01 in0.3 mm
08:40 AM 74.9°F23.8°C 73.7°F23.2°C 96% 1.0 mph SSE1.6 kmh SSE 4.0 mph6.4 kmh 30.02 in1016.6 mb 0.01 in0.3 mm 0.00 in0.0 mm 0.01 in0.3 mm
08:35 AM 74.3°F23.5°C 73.1°F22.8°C 96% 1.0 mph SSE1.6 kmh SSE 3.0 mph4.8 kmh 30.02 in1016.6 mb 0.01 in0.3 mm 0.00 in0.0 mm 0.01 in0.3 mm
08:30 AM 73.6°F23.1°C 72.4°F22.4°C 96% 2.0 mph SSE3.2 kmh SSE 3.0 mph4.8 kmh 30.01 in1016.3 mb 0.01 in0.3 mm 0.00 in0.0 mm 0.01 in0.3 mm
08:25 AM 72.9°F22.7°C 71.7°F22.1°C 96% 2.0 mph SSE3.2 kmh SSE 3.0 mph4.8 kmh 30.01 in1016.3 mb 0.01 in0.3 mm 0.00 in0.0 mm 0.01 in0.3 mm
08:20 AM 72.4°F22.4°C 71.2°F21.8°C 96% 2.0 mph SSE3.2 kmh SSE 3.0 mph4.8 kmh 30.01 in1016.3 mb 0.01 in0.3 mm 0.00 in0.0 mm 0.01 in0.3 mm
08:15 AM 71.9°F22.2°C 70.7°F21.5°C 96% 1.0 mph SE1.6 kmh SE 3.0 mph4.8 kmh 30.01 in1016.3 mb 0.01 in0.3 mm 0.00 in0.0 mm 0.01 in0.3 mm
08:10 AM 71.3°F21.8°C 70.1°F21.2°C 96% Calm Calm 3.0 mph4.8 kmh 30.01 in1016.3 mb 0.01 in0.3 mm 0.00 in0.0 mm 0.01 in0.3 mm
08:05 AM 70.7°F21.5°C 69.2°F20.7°C 95% Calm Calm 1.0 mph1.6 kmh 30.01 in1016.3 mb 0.01 in0.3 mm 0.00 in0.0 mm 0.01 in0.3 mm
08:00 AM 70.4°F21.3°C 68.9°F20.5°C 95% Calm Calm 1.0 mph1.6 kmh 30.01 in1016.3 mb 0.01 in0.3 mm 0.00 in0.0 mm 0.01 in0.3 mm
07:55 AM 70.1°F21.2°C 68.6°F20.3°C 95% Calm Calm 1.0 mph1.6 kmh 30.00 in1015.9 mb 0.01 in0.3 mm 0.12 in3.0 mm 0.01 in0.3 mm
07:50 AM 69.9°F21.1°C 68.4°F20.2°C 95% Calm Calm -- 30.01 in1016.3 mb 0.00 in0.0 mm 0.00 in0.0 mm 0.00 in0.0 mm
07:45 AM 69.9°F21.1°C 68.4°F20.2°C 95% Calm Calm -- 30.00 in1015.9 mb 0.00 in0.0 mm 0.00 in0.0 mm 0.00 in0.0 mm
07:40 AM 69.9°F21.1°C 68.4°F20.2°C 95% Calm Calm -- 30.00 in1015.9 mb 0.00 in0.0 mm 0.00 in0.0 mm 0.00 in0.0 mm
07:35 AM 69.9°F21.1°C 68.4°F20.2°C 95% Calm Calm -- 30.00 in1015.9 mb 0.00 in0.0 mm 0.00 in0.0 mm 0.00 in0.0 mm
07:30 AM 70.0°F21.1°C 68.5°F20.3°C 95% Calm Calm -- 30.00 in1015.9 mb 0.00 in0.0 mm 0.00 in0.0 mm 0.00 in0.0 mm
07:25 AM 70.1°F21.2°C 68.6°F20.3°C 95% Calm Calm -- 30.00 in1015.9 mb 0.00 in0.0 mm 0.00 in0.0 mm 0.00 in0.0 mm
07:20 AM 70.1°F21.2°C 68.6°F20.3°C 95% Calm Calm -- 30.00 in1015.9 mb 0.00 in0.0 mm 0.00 in0.0 mm 0.00 in0.0 mm
07:15 AM 70.2°F21.2°C 68.7°F20.4°C 95% Calm Calm -- 30.00 in1015.9 mb 0.00 in0.0 mm 0.00 in0.0 mm 0.00 in0.0 mm
07:10 AM 70.4°F21.3°C 68.9°F20.5°C 95% Calm Calm -- 30.00 in1015.9 mb 0.00 in0.0 mm 0.00 in0.0 mm 0.00 in0.0 mm
07:05 AM 70.5°F21.4°C 69.0°F20.6°C 95% Calm Calm -- 30.00 in1015.9 mb 0.00 in0.0 mm 0.00 in0.0 mm 0.00 in0.0 mm
07:00 AM 70.6°F21.4°C 69.1°F20.6°C 95% Calm Calm -- 30.00 in1015.9 mb 0.00 in0.0 mm 0.00 in0.0 mm 0.00 in0.0 mm
06:55 AM 70.6°F21.4°C 69.1°F20.6°C 95% Calm Calm 1.0 mph1.6 kmh 30.00 in1015.9 mb 0.00 in0.0 mm 0.00 in0.0 mm 0.00 in0.0 mm
06:50 AM 70.6°F21.4°C 69.1°F20.6°C 95% Calm Calm 1.0 mph1.6 kmh 30.00 in1015.9 mb 0.00 in0.0 mm 0.00 in0.0 mm 0.00 in0.0 mm
06:45 AM 70.5°F21.4°C 69.0°F20.6°C 95% Calm Calm 1.0 mph1.6 kmh 30.00 in1015.9 mb 0.00 in0.0 mm 0.00 in0.0 mm 0.00 in0.0 mm
06:40 AM 70.4°F21.3°C 68.9°F20.5°C 95% Calm Calm -- 30.00 in1015.9 mb 0.00 in0.0 mm 0.00 in0.0 mm 0.00 in0.0 mm
06:35 AM 70.5°F21.4°C 68.7°F20.4°C 94% Calm Calm -- 30.00 in1015.9 mb 0.00 in0.0 mm 0.00 in0.0 mm 0.00 in0.0 mm
06:30 AM 70.6°F21.4°C 68.8°F20.4°C 94% Calm Calm -- 29.99 in1015.6 mb 0.00 in0.0 mm 0.00 in0.0 mm 0.00 in0.0 mm
06:25 AM 70.8°F21.6°C 69.0°F20.6°C 94% Calm Calm -- 29.99 in1015.6 mb 0.00 in0.0 mm 0.00 in0.0 mm 0.00 in0.0 mm
06:20 AM 70.9°F21.6°C 69.4°F20.8°C 95% Calm Calm -- 29.99 in1015.6 mb 0.00 in0.0 mm 0.00 in0.0 mm 0.00 in0.0 mm
06:15 AM 71.0°F21.7°C 69.5°F20.8°C 95% Calm Calm -- 29.98 in1015.2 mb 0.00 in0.0 mm 0.00 in0.0 mm 0.00 in0.0 mm
06:10 AM 71.0°F21.7°C 69.5°F20.8°C 95% Calm Calm 1.0 mph1.6 kmh 29.99 in1015.6 mb 0.00 in0.0 mm 0.00 in0.0 mm 0.00 in0.0 mm
06:05 AM 71.0°F21.7°C 69.5°F20.8°C 95% Calm Calm 1.0 mph1.6 kmh 29.98 in1015.2 mb 0.00 in0.0 mm 0.00 in0.0 mm 0.00 in0.0 mm
06:00 AM 71.0°F21.7°C 69.2°F20.7°C 94% Calm Calm -- 29.98 in1015.2 mb 0.00 in0.0 mm 0.00 in0.0 mm 0.00 in0.0 mm
05:55 AM 71.0°F21.7°C 69.2°F20.7°C 94% Calm Calm -- 29.98 in1015.2 mb 0.00 in0.0 mm 0.00 in0.0 mm 0.00 in0.0 mm
05:50 AM 71.1°F21.7°C 69.3°F20.7°C 94% Calm Calm -- 29.98 in1015.2 mb 0.00 in0.0 mm 0.00 in0.0 mm 0.00 in0.0 mm
05:45 AM 71.2°F21.8°C 69.4°F20.8°C 94% Calm Calm -- 29.98 in1015.2 mb 0.00 in0.0 mm 0.00 in0.0 mm 0.00 in0.0 mm
05:40 AM 71.3°F21.8°C 69.5°F20.8°C 94% Calm Calm -- 29.98 in1015.2 mb 0.00 in0.0 mm 0.00 in0.0 mm 0.00 in0.0 mm
05:35 AM 71.4°F21.9°C 69.6°F20.9°C 94% Calm Calm -- 29.98 in1015.2 mb 0.00 in0.0 mm 0.00 in0.0 mm 0.00 in0.0 mm
05:30 AM 71.6°F22.0°C 69.8°F21.0°C 94% Calm Calm -- 29.98 in1015.2 mb 0.00 in0.0 mm 0.00 in0.0 mm 0.00 in0.0 mm
05:25 AM 71.7°F22.1°C 69.9°F21.1°C 94% Calm Calm -- 29.98 in1015.2 mb 0.00 in0.0 mm 0.00 in0.0 mm 0.00 in0.0 mm
05:20 AM 71.8°F22.1°C 70.0°F21.1°C 94% Calm Calm -- 29.98 in1015.2 mb 0.00 in0.0 mm 0.00 in0.0 mm 0.00 in0.0 mm
05:15 AM 71.9°F22.2°C 70.1°F21.2°C 94% Calm Calm -- 29.97 in1014.9 mb 0.00 in0.0 mm 0.00 in0.0 mm 0.00 in0.0 mm
05:10 AM 72.1°F22.3°C 70.3°F21.3°C 94% Calm Calm 1.0 mph1.6 kmh 29.97 in1014.9 mb 0.00 in0.0 mm 0.00 in0.0 mm 0.00 in0.0 mm
05:05 AM 72.1°F22.3°C 70.3°F21.3°C 94% Calm Calm 1.0 mph1.6 kmh 29.97 in1014.9 mb 0.00 in0.0 mm 0.00 in0.0 mm 0.00 in0.0 mm
05:00 AM 72.2°F22.3°C 70.4°F21.3°C 94% Calm Calm 1.0 mph1.6 kmh 29.97 in1014.9 mb 0.00 in0.0 mm 0.00 in0.0 mm 0.00 in0.0 mm
04:55 AM 72.2°F22.3°C 70.4°F21.3°C 94% Calm Calm 2.0 mph3.2 kmh 29.97 in1014.9 mb 0.00 in0.0 mm 0.00 in0.0 mm 0.00 in0.0 mm
04:50 AM 72.3°F22.4°C 70.5°F21.4°C 94% 1.0 mph S1.6 kmh S 3.0 mph4.8 kmh 29.97 in1014.9 mb 0.00 in0.0 mm 0.00 in0.0 mm 0.00 in0.0 mm
04:45 AM 72.4°F22.4°C 70.6°F21.4°C 94% 2.0 mph S3.2 kmh S 3.0 mph4.8 kmh 29.97 in1014.9 mb 0.00 in0.0 mm 0.00 in0.0 mm 0.00 in0.0 mm
04:40 AM 72.4°F22.4°C 70.6°F21.4°C 94% 2.0 mph S3.2 kmh S 4.0 mph6.4 kmh 29.97 in1014.9 mb 0.00 in0.0 mm 0.00 in0.0 mm 0.00 in0.0 mm
04:35 AM 72.5°F22.5°C 70.7°F21.5°C 94% 2.0 mph S3.2 kmh S 4.0 mph6.4 kmh 29.97 in1014.9 mb 0.00 in0.0 mm 0.00 in0.0 mm 0.00 in0.0 mm
04:30 AM 72.5°F22.5°C 70.7°F21.5°C 94% 2.0 mph S3.2 kmh S 4.0 mph6.4 kmh 29.98 in1015.2 mb 0.00 in0.0 mm 0.00 in0.0 mm 0.00 in0.0 mm
04:25 AM 72.6°F22.6°C 70.8°F21.6°C 94% 1.0 mph S1.6 kmh S 3.0 mph4.8 kmh 29.97 in1014.9 mb 0.00 in0.0 mm 0.00 in0.0 mm 0.00 in0.0 mm
04:20 AM 72.8°F22.7°C 71.0°F21.7°C 94% 1.0 mph S1.6 kmh S 3.0 mph4.8 kmh 29.97 in1014.9 mb 0.00 in0.0 mm 0.00 in0.0 mm 0.00 in0.0 mm
04:15 AM 72.9°F22.7°C 71.1°F21.7°C 94% 1.0 mph S1.6 kmh S 3.0 mph4.8 kmh 29.98 in1015.2 mb 0.00 in0.0 mm 0.00 in0.0 mm 0.00 in0.0 mm
04:10 AM 73.1°F22.8°C 71.3°F21.8°C 94% 1.0 mph S1.6 kmh S 3.0 mph4.8 kmh 29.98 in1015.2 mb 0.00 in0.0 mm 0.00 in0.0 mm 0.00 in0.0 mm
04:05 AM 73.3°F22.9°C 71.5°F21.9°C 94% 2.0 mph S3.2 kmh S 4.0 mph6.4 kmh 29.98 in1015.2 mb 0.00 in0.0 mm 0.00 in0.0 mm 0.00 in0.0 mm
04:00 AM 73.5°F23.1°C 72.0°F22.2°C 95% 1.0 mph S1.6 kmh S 4.0 mph6.4 kmh 29.98 in1015.2 mb 0.00 in0.0 mm 0.00 in0.0 mm 0.00 in0.0 mm
03:55 AM 73.8°F23.2°C 72.3°F22.4°C 95% 2.0 mph S3.2 kmh S 4.0 mph6.4 kmh 29.98 in1015.2 mb 0.00 in0.0 mm 0.00 in0.0 mm 0.00 in0.0 mm
03:50 AM 73.9°F23.3°C 72.4°F22.4°C 95% 1.0 mph S1.6 kmh S 4.0 mph6.4 kmh 29.98 in1015.2 mb 0.00 in0.0 mm 0.00 in0.0 mm 0.00 in0.0 mm
03:45 AM 74.2°F23.4°C 72.7°F22.6°C 95% 2.0 mph S3.2 kmh S 4.0 mph6.4 kmh 29.98 in1015.2 mb 0.00 in0.0 mm 0.00 in0.0 mm 0.00 in0.0 mm
03:40 AM 74.3°F23.5°C 72.8°F22.7°C 95% 2.0 mph S3.2 kmh S 4.0 mph6.4 kmh 29.99 in1015.6 mb 0.00 in0.0 mm 0.00 in0.0 mm 0.00 in0.0 mm
03:35 AM 74.4°F23.6°C 72.9°F22.7°C 95% 2.0 mph S3.2 kmh S 4.0 mph6.4 kmh 29.99 in1015.6 mb 0.00 in0.0 mm 0.00 in0.0 mm 0.00 in0.0 mm
03:30 AM 74.4°F23.6°C 72.9°F22.7°C 95% 2.0 mph S3.2 kmh S 4.0 mph6.4 kmh 29.99 in1015.6 mb 0.00 in0.0 mm 0.00 in0.0 mm 0.00 in0.0 mm
03:25 AM 74.4°F23.6°C 72.9°F22.7°C 95% 2.0 mph S3.2 kmh S 4.0 mph6.4 kmh 29.99 in1015.6 mb 0.00 in0.0 mm 0.00 in0.0 mm 0.00 in0.0 mm
03:20 AM 74.3°F23.5°C 72.8°F22.7°C 95% 2.0 mph S3.2 kmh S 5.0 mph8.0 kmh 29.99 in1015.6 mb 0.00 in0.0 mm 0.00 in0.0 mm 0.00 in0.0 mm
03:15 AM 74.3°F23.5°C 72.8°F22.7°C 95% 2.0 mph S3.2 kmh S 5.0 mph8.0 kmh 30.00 in1015.9 mb 0.00 in0.0 mm 0.00 in0.0 mm 0.00 in0.0 mm
03:10 AM 74.2°F23.4°C 72.7°F22.6°C 95% 2.0 mph S3.2 kmh S 5.0 mph8.0 kmh 30.00 in1015.9 mb 0.00 in0.0 mm 0.00 in0.0 mm 0.00 in0.0 mm
03:05 AM 74.2°F23.4°C 72.7°F22.6°C 95% 2.0 mph S3.2 kmh S 4.0 mph6.4 kmh 30.00 in1015.9 mb 0.00 in0.0 mm 0.00 in0.0 mm 0.00 in0.0 mm
03:00 AM 74.2°F23.4°C 72.7°F22.6°C 95% 2.0 mph S3.2 kmh S 4.0 mph6.4 kmh 30.00 in1015.9 mb 0.00 in0.0 mm 0.00 in0.0 mm 0.00 in0.0 mm
02:55 AM 74.1°F23.4°C 72.6°F22.6°C 95% 3.0 mph S4.8 kmh S 5.0 mph8.0 kmh 30.00 in1015.9 mb 0.00 in0.0 mm 0.00 in0.0 mm 0.00 in0.0 mm
02:50 AM 74.0°F23.3°C 72.2°F22.3°C 94% 2.0 mph S3.2 kmh S 5.0 mph8.0 kmh 30.00 in1015.9 mb 0.00 in0.0 mm 0.00 in0.0 mm 0.00 in0.0 mm
02:45 AM 73.9°F23.3°C 72.1°F22.3°C 94% 3.0 mph S4.8 kmh S 5.0 mph8.0 kmh 30.00 in1015.9 mb 0.00 in0.0 mm 0.00 in0.0 mm 0.00 in0.0 mm
02:40 AM 73.8°F23.2°C 72.0°F22.2°C 94% 3.0 mph S4.8 kmh S 5.0 mph8.0 kmh 30.00 in1015.9 mb 0.00 in0.0 mm 0.00 in0.0 mm 0.00 in0.0 mm
02:35 AM 73.8°F23.2°C 72.0°F22.2°C 94% 2.0 mph SSE3.2 kmh SSE 5.0 mph8.0 kmh 30.00 in1015.9 mb 0.00 in0.0 mm 0.00 in0.0 mm 0.00 in0.0 mm
02:30 AM 73.8°F23.2°C 72.0°F22.2°C 94% 2.0 mph SE3.2 kmh SE 4.0 mph6.4 kmh 30.01 in1016.3 mb 0.00 in0.0 mm 0.00 in0.0 mm 0.00 in0.0 mm
02:25 AM 73.9°F23.3°C 72.1°F22.3°C 94% 1.0 mph SE1.6 kmh SE 4.0 mph6.4 kmh 30.01 in1016.3 mb 0.00 in0.0 mm 0.00 in0.0 mm 0.00 in0.0 mm
02:20 AM 74.0°F23.3°C 72.2°F22.3°C 94% 2.0 mph SE3.2 kmh SE 4.0 mph6.4 kmh 30.01 in1016.3 mb 0.00 in0.0 mm 0.00 in0.0 mm 0.00 in0.0 mm
02:15 AM 74.0°F23.3°C 72.2°F22.3°C 94% 1.0 mph SE1.6 kmh SE 3.0 mph4.8 kmh 30.01 in1016.3 mb 0.00 in0.0 mm 0.00 in0.0 mm 0.00 in0.0 mm
02:10 AM 74.1°F23.4°C 72.3°F22.4°C 94% 1.0 mph SE1.6 kmh SE 3.0 mph4.8 kmh 30.01 in1016.3 mb 0.00 in0.0 mm 0.00 in0.0 mm 0.00 in0.0 mm
02:05 AM 74.2°F23.4°C 72.4°F22.4°C 94% 1.0 mph SE1.6 kmh SE 3.0 mph4.8 kmh 30.01 in1016.3 mb 0.00 in0.0 mm 0.00 in0.0 mm 0.00 in0.0 mm
02:00 AM 74.2°F23.4°C 72.4°F22.4°C 94% 1.0 mph SE1.6 kmh SE 3.0 mph4.8 kmh 30.01 in1016.3 mb 0.00 in0.0 mm 0.00 in0.0 mm 0.00 in0.0 mm
01:55 AM 74.3°F23.5°C 72.5°F22.5°C 94% 1.0 mph SE1.6 kmh SE 4.0 mph6.4 kmh 30.01 in1016.3 mb 0.00 in0.0 mm 0.00 in0.0 mm 0.00 in0.0 mm
01:50 AM 74.4°F23.6°C 72.6°F22.6°C 94% 2.0 mph SE3.2 kmh SE 4.0 mph6.4 kmh 30.01 in1016.3 mb 0.00 in0.0 mm 0.00 in0.0 mm 0.00 in0.0 mm
01:45 AM 74.4°F23.6°C 72.6°F22.6°C 94% 2.0 mph SE3.2 kmh SE 4.0 mph6.4 kmh 30.02 in1016.6 mb 0.00 in0.0 mm 0.00 in0.0 mm 0.00 in0.0 mm
01:40 AM 74.4°F23.6°C 72.6°F22.6°C 94% 1.0 mph SE1.6 kmh SE 4.0 mph6.4 kmh 30.02 in1016.6 mb 0.00 in0.0 mm 0.00 in0.0 mm 0.00 in0.0 mm
01:35 AM 74.5°F23.6°C 72.7°F22.6°C 94% 1.0 mph SE1.6 kmh SE 4.0 mph6.4 kmh 30.02 in1016.6 mb 0.00 in0.0 mm 0.00 in0.0 mm 0.00 in0.0 mm
01:30 AM 74.5°F23.6°C 72.7°F22.6°C 94% 1.0 mph SE1.6 kmh SE 4.0 mph6.4 kmh 30.02 in1016.6 mb 0.00 in0.0 mm 0.00 in0.0 mm 0.00 in0.0 mm
01:25 AM 74.6°F23.7°C 72.4°F22.4°C 93% 1.0 mph ESE1.6 kmh ESE 3.0 mph4.8 kmh 30.02 in1016.6 mb 0.00 in0.0 mm 0.00 in0.0 mm 0.00 in0.0 mm
01:20 AM 74.6°F23.7°C 72.4°F22.4°C 93% 1.0 mph E1.6 kmh E 3.0 mph4.8 kmh 30.02 in1016.6 mb 0.00 in0.0 mm 0.00 in0.0 mm 0.00 in0.0 mm
01:15 AM 74.6°F23.7°C 72.4°F22.4°C 93% 1.0 mph E1.6 kmh E 2.0 mph3.2 kmh 30.02 in1016.6 mb 0.00 in0.0 mm 0.00 in0.0 mm 0.00 in0.0 mm
01:10 AM 74.7°F23.7°C 72.5°F22.5°C 93% 1.0 mph E1.6 kmh E 3.0 mph4.8 kmh 30.02 in1016.6 mb 0.00 in0.0 mm 0.00 in0.0 mm 0.00 in0.0 mm
01:05 AM 74.7°F23.7°C 72.5°F22.5°C 93% 1.0 mph E1.6 kmh E 3.0 mph4.8 kmh 30.02 in1016.6 mb 0.00 in0.0 mm 0.00 in0.0 mm 0.00 in0.0 mm
01:00 AM 74.7°F23.7°C 72.5°F22.5°C 93% 1.0 mph E1.6 kmh E 3.0 mph4.8 kmh 30.02 in1016.6 mb 0.00 in0.0 mm 0.00 in0.0 mm 0.00 in0.0 mm
12:55 AM 74.8°F23.8°C 72.6°F22.6°C 93% 1.0 mph E1.6 kmh E 3.0 mph4.8 kmh 30.02 in1016.6 mb 0.00 in0.0 mm 0.00 in0.0 mm 0.00 in0.0 mm
12:50 AM 74.8°F23.8°C 72.6°F22.6°C 93% 1.0 mph E1.6 kmh E 3.0 mph4.8 kmh 30.02 in1016.6 mb 0.00 in0.0 mm 0.00 in0.0 mm 0.00 in0.0 mm
12:45 AM 74.8°F23.8°C 72.6°F22.6°C 93% Calm Calm 2.0 mph3.2 kmh 30.02 in1016.6 mb 0.00 in0.0 mm 0.00 in0.0 mm 0.00 in0.0 mm
12:40 AM 74.8°F23.8°C 72.6°F22.6°C 93% Calm Calm 2.0 mph3.2 kmh 30.03 in1016.9 mb 0.00 in0.0 mm 0.00 in0.0 mm 0.00 in0.0 mm
12:35 AM 74.8°F23.8°C 72.6°F22.6°C 93% Calm Calm 2.0 mph3.2 kmh 30.03 in1016.9 mb 0.00 in0.0 mm 0.00 in0.0 mm 0.00 in0.0 mm
12:30 AM 74.8°F23.8°C 72.6°F22.6°C 93% Calm Calm 2.0 mph3.2 kmh 30.03 in1016.9 mb 0.00 in0.0 mm 0.00 in0.0 mm 0.00 in0.0 mm
12:25 AM 74.8°F23.8°C 72.6°F22.6°C 93% Calm Calm 1.0 mph1.6 kmh 30.03 in1016.9 mb 0.00 in0.0 mm 0.00 in0.0 mm 0.00 in0.0 mm
12:20 AM 74.8°F23.8°C 72.6°F22.6°C 93% Calm Calm 2.0 mph3.2 kmh 30.03 in1016.9 mb 0.00 in0.0 mm 0.00 in0.0 mm 0.00 in0.0 mm
12:15 AM 74.8°F23.8°C 72.6°F22.6°C 93% Calm Calm 2.0 mph3.2 kmh 30.03 in1016.9 mb 0.00 in0.0 mm 0.00 in0.0 mm 0.00 in0.0 mm
12:10 AM 74.8°F23.8°C 72.6°F22.6°C 93% Calm Calm 2.0 mph3.2 kmh 30.03 in1016.9 mb 0.00 in0.0 mm 0.00 in0.0 mm 0.00 in0.0 mm
12:05 AM 74.8°F23.8°C 72.3°F22.4°C 92% Calm Calm 2.0 mph3.2 kmh 30.03 in1016.9 mb 0.00 in0.0 mm 0.00 in0.0 mm 0.00 in0.0 mm
12:00 AM 74.8°F23.8°C 72.3°F22.4°C 92% Calm Calm 2.0 mph3.2 kmh 30.03 in1016.9 mb 0.00 in0.0 mm 0.00 in0.0 mm 0.00 in0.0 mm